sensor_id;sensor_type;location;lat;lon;timestamp;P1;durP1;ratioP1;P2;durP2;ratioP2
60372;SDS011;46216;52.220;5.134;2022-10-31T00:02:03;8.95;;;6.38;;
60372;SDS011;46216;52.220;5.134;2022-10-31T00:04:29;14.95;;;6.20;;
60372;SDS011;46216;52.220;5.134;2022-10-31T00:06:54;9.80;;;5.95;;
60372;SDS011;46216;52.220;5.134;2022-10-31T00:09:19;10.45;;;5.88;;
60372;SDS011;46216;52.220;5.134;2022-10-31T00:11:45;9.88;;;6.35;;
60372;SDS011;46216;52.220;5.134;2022-10-31T00:14:10;11.32;;;6.38;;
60372;SDS011;46216;52.220;5.134;2022-10-31T00:16:35;9.57;;;6.07;;
60372;SDS011;46216;52.220;5.134;2022-10-31T00:19:02;9.95;;;6.28;;
60372;SDS011;46216;52.220;5.134;2022-10-31T00:21:29;10.27;;;6.70;;
60372;SDS011;46216;52.220;5.134;2022-10-31T00:23:55;9.63;;;6.43;;
60372;SDS011;46216;52.220;5.134;2022-10-31T00:26:22;10.40;;;6.45;;
60372;SDS011;46216;52.220;5.134;2022-10-31T00:28:47;9.48;;;6.05;;
60372;SDS011;46216;52.220;5.134;2022-10-31T00:31:13;10.23;;;6.65;;
60372;SDS011;46216;52.220;5.134;2022-10-31T00:33:39;13.45;;;6.60;;
60372;SDS011;46216;52.220;5.134;2022-10-31T00:36:05;10.52;;;6.25;;
60372;SDS011;46216;52.220;5.134;2022-10-31T00:38:31;11.55;;;6.60;;
60372;SDS011;46216;52.220;5.134;2022-10-31T00:40:56;7.95;;;6.22;;
60372;SDS011;46216;52.220;5.134;2022-10-31T00:43:22;11.82;;;6.40;;
60372;SDS011;46216;52.220;5.134;2022-10-31T00:45:47;8.95;;;7.18;;
60372;SDS011;46216;52.220;5.134;2022-10-31T00:48:12;11.60;;;7.25;;
60372;SDS011;46216;52.220;5.134;2022-10-31T00:50:38;11.95;;;6.47;;
60372;SDS011;46216;52.220;5.134;2022-10-31T00:53:03;8.70;;;6.55;;
60372;SDS011;46216;52.220;5.134;2022-10-31T00:55:28;8.57;;;6.40;;
60372;SDS011;46216;52.220;5.134;2022-10-31T00:57:54;7.68;;;6.25;;
60372;SDS011;46216;52.220;5.134;2022-10-31T01:00:19;13.10;;;6.70;;
60372;SDS011;46216;52.220;5.134;2022-10-31T01:02:45;10.93;;;6.85;;
60372;SDS011;46216;52.220;5.134;2022-10-31T01:05:10;11.25;;;6.60;;
60372;SDS011;46216;52.220;5.134;2022-10-31T01:07:36;10.68;;;6.97;;
60372;SDS011;46216;52.220;5.134;2022-10-31T01:10:03;9.85;;;6.80;;
60372;SDS011;46216;52.220;5.134;2022-10-31T01:12:29;15.40;;;7.05;;
60372;SDS011;46216;52.220;5.134;2022-10-31T01:14:54;9.27;;;6.93;;
60372;SDS011;46216;52.220;5.134;2022-10-31T01:17:19;9.32;;;6.60;;
60372;SDS011;46216;52.220;5.134;2022-10-31T01:19:44;10.07;;;6.90;;
60372;SDS011;46216;52.220;5.134;2022-10-31T01:22:10;11.65;;;6.82;;
60372;SDS011;46216;52.220;5.134;2022-10-31T01:24:35;11.25;;;7.00;;
60372;SDS011;46216;52.220;5.134;2022-10-31T01:27:01;12.05;;;7.03;;
60372;SDS011;46216;52.220;5.134;2022-10-31T01:29:27;9.73;;;7.10;;
60372;SDS011;46216;52.220;5.134;2022-10-31T01:31:52;9.65;;;6.88;;
60372;SDS011;46216;52.220;5.134;2022-10-31T01:34:17;10.18;;;6.65;;
60372;SDS011;46216;52.220;5.134;2022-10-31T01:36:43;9.75;;;6.25;;
60372;SDS011;46216;52.220;5.134;2022-10-31T01:39:12;11.32;;;7.45;;
60372;SDS011;46216;52.220;5.134;2022-10-31T01:41:41;9.77;;;7.03;;
60372;SDS011;46216;52.220;5.134;2022-10-31T01:49:24;11.13;;;7.20;;
60372;SDS011;46216;52.220;5.134;2022-10-31T01:52:29;10.70;;;6.90;;
60372;SDS011;46216;52.220;5.134;2022-10-31T01:54:51;10.75;;;7.20;;
60372;SDS011;46216;52.220;5.134;2022-10-31T01:57:23;10.90;;;7.10;;
60372;SDS011;46216;52.220;5.134;2022-10-31T01:59:51;11.43;;;7.63;;
60372;SDS011;46216;52.220;5.134;2022-10-31T02:02:20;14.23;;;8.00;;
60372;SDS011;46216;52.220;5.134;2022-10-31T02:04:46;12.23;;;7.30;;
60372;SDS011;46216;52.220;5.134;2022-10-31T02:07:20;11.80;;;8.23;;
60372;SDS011;46216;52.220;5.134;2022-10-31T02:09:50;11.80;;;7.80;;
60372;SDS011;46216;52.220;5.134;2022-10-31T02:12:18;16.08;;;8.10;;
60372;SDS011;46216;52.220;5.134;2022-10-31T02:14:44;12.65;;;8.52;;
60372;SDS011;46216;52.220;5.134;2022-10-31T02:17:09;16.95;;;8.25;;
60372;SDS011;46216;52.220;5.134;2022-10-31T02:19:51;9.80;;;7.88;;
60372;SDS011;46216;52.220;5.134;2022-10-31T02:30:23;16.55;;;8.85;;
60372;SDS011;46216;52.220;5.134;2022-10-31T02:35:40;14.05;;;8.38;;
60372;SDS011;46216;52.220;5.134;2022-10-31T02:41:15;12.82;;;8.52;;
60372;SDS011;46216;52.220;5.134;2022-10-31T02:43:49;15.00;;;8.77;;
60372;SDS011;46216;52.220;5.134;2022-10-31T02:47:01;12.63;;;8.73;;
60372;SDS011;46216;52.220;5.134;2022-10-31T02:49:17;12.25;;;8.70;;
60372;SDS011;46216;52.220;5.134;2022-10-31T02:51:45;13.15;;;9.13;;
60372;SDS011;46216;52.220;5.134;2022-10-31T02:54:17;15.13;;;9.57;;
60372;SDS011;46216;52.220;5.134;2022-10-31T02:56:45;15.05;;;9.18;;
60372;SDS011;46216;52.220;5.134;2022-10-31T02:59:11;13.88;;;9.82;;
60372;SDS011;46216;52.220;5.134;2022-10-31T03:01:39;12.90;;;9.50;;
60372;SDS011;46216;52.220;5.134;2022-10-31T03:04:27;13.85;;;9.68;;
60372;SDS011;46216;52.220;5.134;2022-10-31T03:12:38;16.73;;;10.43;;
60372;SDS011;46216;52.220;5.134;2022-10-31T03:15:14;15.20;;;10.68;;
60372;SDS011;46216;52.220;5.134;2022-10-31T03:20:21;16.27;;;10.75;;
60372;SDS011;46216;52.220;5.134;2022-10-31T03:22:52;14.85;;;10.85;;
60372;SDS011;46216;52.220;5.134;2022-10-31T03:25:20;18.80;;;11.13;;
60372;SDS011;46216;52.220;5.134;2022-10-31T03:27:45;14.93;;;11.68;;
60372;SDS011;46216;52.220;5.134;2022-10-31T03:30:12;22.05;;;12.80;;
60372;SDS011;46216;52.220;5.134;2022-10-31T03:32:39;18.13;;;12.63;;
60372;SDS011;46216;52.220;5.134;2022-10-31T03:35:10;18.88;;;12.18;;
60372;SDS011;46216;52.220;5.134;2022-10-31T03:37:40;20.05;;;12.27;;
60372;SDS011;46216;52.220;5.134;2022-10-31T03:40:07;21.17;;;12.45;;
60372;SDS011;46216;52.220;5.134;2022-10-31T03:42:36;19.80;;;12.82;;
60372;SDS011;46216;52.220;5.134;2022-10-31T03:45:15;18.40;;;12.55;;
60372;SDS011;46216;52.220;5.134;2022-10-31T03:47:46;16.67;;;12.52;;
60372;SDS011;46216;52.220;5.134;2022-10-31T03:50:13;21.23;;;13.32;;
60372;SDS011;46216;52.220;5.134;2022-10-31T03:52:51;19.95;;;13.20;;
60372;SDS011;46216;52.220;5.134;2022-10-31T03:55:32;20.90;;;13.27;;
60372;SDS011;46216;52.220;5.134;2022-10-31T04:01:04;20.35;;;13.82;;
60372;SDS011;46216;52.220;5.134;2022-10-31T04:03:33;17.75;;;13.27;;
60372;SDS011;46216;52.220;5.134;2022-10-31T04:06:03;19.75;;;13.13;;
60372;SDS011;46216;52.220;5.134;2022-10-31T04:08:32;21.23;;;14.90;;
60372;SDS011;46216;52.220;5.134;2022-10-31T04:11:02;22.30;;;14.95;;
60372;SDS011;46216;52.220;5.134;2022-10-31T04:13:29;20.33;;;15.13;;
60372;SDS011;46216;52.220;5.134;2022-10-31T04:15:59;21.65;;;15.20;;
60372;SDS011;46216;52.220;5.134;2022-10-31T04:18:25;22.23;;;15.40;;
60372;SDS011;46216;52.220;5.134;2022-10-31T04:21:00;24.95;;;16.00;;
60372;SDS011;46216;52.220;5.134;2022-10-31T04:23:30;22.40;;;16.10;;
60372;SDS011;46216;52.220;5.134;2022-10-31T04:25:56;27.67;;;17.40;;
60372;SDS011;46216;52.220;5.134;2022-10-31T04:28:22;26.40;;;17.02;;
60372;SDS011;46216;52.220;5.134;2022-10-31T04:30:48;32.70;;;17.40;;
60372;SDS011;46216;52.220;5.134;2022-10-31T04:33:14;26.95;;;18.55;;
60372;SDS011;46216;52.220;5.134;2022-10-31T04:35:39;30.00;;;18.48;;
60372;SDS011;46216;52.220;5.134;2022-10-31T04:38:05;26.48;;;18.42;;
60372;SDS011;46216;52.220;5.134;2022-10-31T04:40:30;28.55;;;18.27;;
60372;SDS011;46216;52.220;5.134;2022-10-31T04:42:55;27.17;;;18.02;;
60372;SDS011;46216;52.220;5.134;2022-10-31T04:45:20;26.10;;;18.30;;
60372;SDS011;46216;52.220;5.134;2022-10-31T04:47:46;30.17;;;18.98;;
60372;SDS011;46216;52.220;5.134;2022-10-31T04:50:11;26.17;;;18.92;;
60372;SDS011;46216;52.220;5.134;2022-10-31T04:52:40;27.13;;;18.45;;
60372;SDS011;46216;52.220;5.134;2022-10-31T04:55:07;27.70;;;19.10;;
60372;SDS011;46216;52.220;5.134;2022-10-31T04:57:39;32.15;;;20.05;;
60372;SDS011;46216;52.220;5.134;2022-10-31T05:00:05;27.92;;;18.83;;
60372;SDS011;46216;52.220;5.134;2022-10-31T05:02:31;32.50;;;20.23;;
60372;SDS011;46216;52.220;5.134;2022-10-31T05:04:56;31.02;;;19.92;;
60372;SDS011;46216;52.220;5.134;2022-10-31T05:07:22;29.92;;;19.88;;
60372;SDS011;46216;52.220;5.134;2022-10-31T05:09:47;29.55;;;19.55;;
60372;SDS011;46216;52.220;5.134;2022-10-31T05:12:12;32.92;;;19.38;;
60372;SDS011;46216;52.220;5.134;2022-10-31T05:14:39;32.35;;;19.73;;
60372;SDS011;46216;52.220;5.134;2022-10-31T05:17:04;30.25;;;19.75;;
60372;SDS011;46216;52.220;5.134;2022-10-31T05:19:29;30.77;;;19.15;;
60372;SDS011;46216;52.220;5.134;2022-10-31T05:21:55;26.65;;;19.00;;
60372;SDS011;46216;52.220;5.134;2022-10-31T05:24:20;31.88;;;19.65;;
60372;SDS011;46216;52.220;5.134;2022-10-31T05:26:47;29.83;;;19.15;;
60372;SDS011;46216;52.220;5.134;2022-10-31T05:29:13;27.92;;;18.80;;
60372;SDS011;46216;52.220;5.134;2022-10-31T05:31:38;28.27;;;18.70;;
60372;SDS011;46216;52.220;5.134;2022-10-31T05:34:03;30.08;;;20.10;;
60372;SDS011;46216;52.220;5.134;2022-10-31T05:36:29;28.65;;;19.15;;
60372;SDS011;46216;52.220;5.134;2022-10-31T05:38:54;32.22;;;18.83;;
60372;SDS011;46216;52.220;5.134;2022-10-31T05:41:19;31.35;;;19.00;;
60372;SDS011;46216;52.220;5.134;2022-10-31T05:43:45;30.25;;;19.42;;
60372;SDS011;46216;52.220;5.134;2022-10-31T05:46:10;29.40;;;18.83;;
60372;SDS011;46216;52.220;5.134;2022-10-31T05:48:36;31.77;;;18.92;;
60372;SDS011;46216;52.220;5.134;2022-10-31T05:51:01;30.65;;;20.42;;
60372;SDS011;46216;52.220;5.134;2022-10-31T05:53:26;29.40;;;18.73;;
60372;SDS011;46216;52.220;5.134;2022-10-31T05:55:52;34.20;;;19.95;;
60372;SDS011;46216;52.220;5.134;2022-10-31T05:58:17;29.48;;;18.90;;
60372;SDS011;46216;52.220;5.134;2022-10-31T06:00:42;30.38;;;18.88;;
60372;SDS011;46216;52.220;5.134;2022-10-31T06:03:08;29.70;;;19.38;;
60372;SDS011;46216;52.220;5.134;2022-10-31T06:05:34;28.92;;;18.02;;
60372;SDS011;46216;52.220;5.134;2022-10-31T06:08:00;26.52;;;18.15;;
60372;SDS011;46216;52.220;5.134;2022-10-31T06:10:26;31.55;;;18.88;;
60372;SDS011;46216;52.220;5.134;2022-10-31T06:12:52;29.23;;;19.27;;
60372;SDS011;46216;52.220;5.134;2022-10-31T06:15:17;27.77;;;18.80;;
60372;SDS011;46216;52.220;5.134;2022-10-31T06:17:43;28.52;;;19.13;;
60372;SDS011;46216;52.220;5.134;2022-10-31T06:20:08;34.03;;;21.88;;
60372;SDS011;46216;52.220;5.134;2022-10-31T06:22:34;29.90;;;20.27;;
60372;SDS011;46216;52.220;5.134;2022-10-31T06:24:59;27.92;;;18.80;;
60372;SDS011;46216;52.220;5.134;2022-10-31T06:27:24;29.40;;;18.95;;
60372;SDS011;46216;52.220;5.134;2022-10-31T06:29:50;31.02;;;19.55;;
60372;SDS011;46216;52.220;5.134;2022-10-31T06:32:16;33.55;;;20.17;;
60372;SDS011;46216;52.220;5.134;2022-10-31T06:34:41;31.08;;;19.58;;
60372;SDS011;46216;52.220;5.134;2022-10-31T06:37:07;29.90;;;19.65;;
60372;SDS011;46216;52.220;5.134;2022-10-31T06:39:35;28.52;;;19.27;;
60372;SDS011;46216;52.220;5.134;2022-10-31T06:42:00;32.90;;;19.77;;
60372;SDS011;46216;52.220;5.134;2022-10-31T06:44:26;34.05;;;20.25;;
60372;SDS011;46216;52.220;5.134;2022-10-31T06:46:51;29.10;;;19.40;;
60372;SDS011;46216;52.220;5.134;2022-10-31T06:49:17;33.50;;;20.45;;
60372;SDS011;46216;52.220;5.134;2022-10-31T06:51:42;32.50;;;19.48;;
60372;SDS011;46216;52.220;5.134;2022-10-31T06:54:08;28.10;;;19.52;;
60372;SDS011;46216;52.220;5.134;2022-10-31T06:56:33;27.75;;;18.45;;
60372;SDS011;46216;52.220;5.134;2022-10-31T06:58:59;31.77;;;20.00;;
60372;SDS011;46216;52.220;5.134;2022-10-31T07:01:24;29.77;;;19.92;;
60372;SDS011;46216;52.220;5.134;2022-10-31T07:03:49;29.02;;;19.77;;
60372;SDS011;46216;52.220;5.134;2022-10-31T07:06:15;32.50;;;19.98;;
60372;SDS011;46216;52.220;5.134;2022-10-31T07:08:40;33.40;;;21.17;;
60372;SDS011;46216;52.220;5.134;2022-10-31T07:11:05;30.73;;;19.92;;
60372;SDS011;46216;52.220;5.134;2022-10-31T07:13:31;33.80;;;21.30;;
60372;SDS011;46216;52.220;5.134;2022-10-31T07:16:00;30.85;;;20.83;;
60372;SDS011;46216;52.220;5.134;2022-10-31T07:18:27;32.17;;;20.35;;
60372;SDS011;46216;52.220;5.134;2022-10-31T07:20:53;31.45;;;20.98;;
60372;SDS011;46216;52.220;5.134;2022-10-31T07:23:18;38.55;;;22.42;;
60372;SDS011;46216;52.220;5.134;2022-10-31T07:25:44;30.90;;;21.42;;
60372;SDS011;46216;52.220;5.134;2022-10-31T07:28:10;31.73;;;22.05;;
60372;SDS011;46216;52.220;5.134;2022-10-31T07:30:35;32.47;;;21.40;;
60372;SDS011;46216;52.220;5.134;2022-10-31T07:33:01;32.78;;;21.92;;
60372;SDS011;46216;52.220;5.134;2022-10-31T07:35:27;34.97;;;22.13;;
60372;SDS011;46216;52.220;5.134;2022-10-31T07:37:53;35.42;;;21.67;;
60372;SDS011;46216;52.220;5.134;2022-10-31T07:40:19;33.38;;;22.48;;
60372;SDS011;46216;52.220;5.134;2022-10-31T07:42:46;31.73;;;22.08;;
60372;SDS011;46216;52.220;5.134;2022-10-31T07:45:14;36.65;;;22.17;;
60372;SDS011;46216;52.220;5.134;2022-10-31T07:47:45;33.45;;;22.65;;
60372;SDS011;46216;52.220;5.134;2022-10-31T07:50:13;36.45;;;23.10;;
60372;SDS011;46216;52.220;5.134;2022-10-31T07:52:40;37.55;;;23.95;;
60372;SDS011;46216;52.220;5.134;2022-10-31T07:55:05;37.42;;;24.90;;
60372;SDS011;46216;52.220;5.134;2022-10-31T07:57:31;39.60;;;24.23;;
60372;SDS011;46216;52.220;5.134;2022-10-31T07:59:57;44.22;;;25.83;;
60372;SDS011;46216;52.220;5.134;2022-10-31T08:02:22;43.10;;;24.42;;
60372;SDS011;46216;52.220;5.134;2022-10-31T08:04:48;40.95;;;25.85;;
60372;SDS011;46216;52.220;5.134;2022-10-31T08:07:13;41.17;;;24.77;;
60372;SDS011;46216;52.220;5.134;2022-10-31T08:09:39;48.05;;;25.63;;
60372;SDS011;46216;52.220;5.134;2022-10-31T08:12:04;42.65;;;24.77;;
60372;SDS011;46216;52.220;5.134;2022-10-31T08:14:29;39.53;;;23.70;;
60372;SDS011;46216;52.220;5.134;2022-10-31T08:16:55;45.25;;;24.45;;
60372;SDS011;46216;52.220;5.134;2022-10-31T08:19:20;39.40;;;23.50;;
60372;SDS011;46216;52.220;5.134;2022-10-31T08:21:45;44.65;;;24.00;;
60372;SDS011;46216;52.220;5.134;2022-10-31T08:24:11;40.13;;;24.75;;
60372;SDS011;46216;52.220;5.134;2022-10-31T08:26:36;41.78;;;24.60;;
60372;SDS011;46216;52.220;5.134;2022-10-31T08:29:02;42.67;;;24.38;;
60372;SDS011;46216;52.220;5.134;2022-10-31T08:31:28;38.25;;;23.85;;
60372;SDS011;46216;52.220;5.134;2022-10-31T08:33:53;43.40;;;23.58;;
60372;SDS011;46216;52.220;5.134;2022-10-31T08:36:19;38.05;;;22.98;;
60372;SDS011;46216;52.220;5.134;2022-10-31T08:38:46;36.67;;;23.98;;
60372;SDS011;46216;52.220;5.134;2022-10-31T08:41:12;38.83;;;23.42;;
60372;SDS011;46216;52.220;5.134;2022-10-31T08:43:37;35.65;;;23.70;;
60372;SDS011;46216;52.220;5.134;2022-10-31T08:46:02;37.15;;;24.45;;
60372;SDS011;46216;52.220;5.134;2022-10-31T08:48:29;38.30;;;24.52;;
60372;SDS011;46216;52.220;5.134;2022-10-31T08:50:56;39.58;;;24.35;;
60372;SDS011;46216;52.220;5.134;2022-10-31T08:53:23;38.30;;;23.92;;
60372;SDS011;46216;52.220;5.134;2022-10-31T08:55:48;42.47;;;24.90;;
60372;SDS011;46216;52.220;5.134;2022-10-31T08:58:14;37.38;;;23.05;;
60372;SDS011;46216;52.220;5.134;2022-10-31T09:00:41;39.20;;;23.88;;
60372;SDS011;46216;52.220;5.134;2022-10-31T09:03:11;36.25;;;23.35;;
60372;SDS011;46216;52.220;5.134;2022-10-31T09:05:38;38.33;;;23.73;;
60372;SDS011;46216;52.220;5.134;2022-10-31T09:08:04;39.50;;;24.83;;
60372;SDS011;46216;52.220;5.134;2022-10-31T09:10:31;37.20;;;24.25;;
60372;SDS011;46216;52.220;5.134;2022-10-31T09:12:58;36.80;;;25.00;;
60372;SDS011;46216;52.220;5.134;2022-10-31T09:15:26;38.45;;;24.95;;
60372;SDS011;46216;52.220;5.134;2022-10-31T09:17:52;38.67;;;24.58;;
60372;SDS011;46216;52.220;5.134;2022-10-31T09:20:18;36.38;;;24.58;;
60372;SDS011;46216;52.220;5.134;2022-10-31T09:22:44;38.20;;;24.05;;
60372;SDS011;46216;52.220;5.134;2022-10-31T09:25:09;39.45;;;24.42;;
60372;SDS011;46216;52.220;5.134;2022-10-31T09:27:35;35.60;;;24.08;;
60372;SDS011;46216;52.220;5.134;2022-10-31T09:30:00;40.45;;;24.55;;
60372;SDS011;46216;52.220;5.134;2022-10-31T09:32:26;40.60;;;25.05;;
60372;SDS011;46216;52.220;5.134;2022-10-31T09:34:51;40.25;;;25.15;;
60372;SDS011;46216;52.220;5.134;2022-10-31T09:37:16;42.95;;;25.85;;
60372;SDS011;46216;52.220;5.134;2022-10-31T09:39:42;45.45;;;25.55;;
60372;SDS011;46216;52.220;5.134;2022-10-31T09:45:32;43.38;;;26.90;;
60372;SDS011;46216;52.220;5.134;2022-10-31T09:51:04;44.45;;;26.23;;
60372;SDS011;46216;52.220;5.134;2022-10-31T09:53:35;41.28;;;25.23;;
60372;SDS011;46216;52.220;5.134;2022-10-31T09:56:06;42.38;;;27.33;;
60372;SDS011;46216;52.220;5.134;2022-10-31T09:58:36;41.25;;;25.75;;
60372;SDS011;46216;52.220;5.134;2022-10-31T10:01:06;40.83;;;26.05;;
60372;SDS011;46216;52.220;5.134;2022-10-31T10:03:46;39.63;;;25.92;;
60372;SDS011;46216;52.220;5.134;2022-10-31T10:06:17;39.78;;;24.85;;
60372;SDS011;46216;52.220;5.134;2022-10-31T10:08:46;35.03;;;23.75;;
60372;SDS011;46216;52.220;5.134;2022-10-31T10:11:30;33.85;;;22.50;;
60372;SDS011;46216;52.220;5.134;2022-10-31T10:19:43;31.98;;;20.70;;
60372;SDS011;46216;52.220;5.134;2022-10-31T10:24:55;30.55;;;19.13;;
60372;SDS011;46216;52.220;5.134;2022-10-31T10:30:18;27.58;;;18.77;;
60372;SDS011;46216;52.220;5.134;2022-10-31T10:32:47;25.98;;;18.63;;
60372;SDS011;46216;52.220;5.134;2022-10-31T10:37:59;25.65;;;17.17;;
60372;SDS011;46216;52.220;5.134;2022-10-31T10:40:44;24.60;;;17.92;;
60372;SDS011;46216;52.220;5.134;2022-10-31T10:43:31;28.02;;;17.77;;
60372;SDS011;46216;52.220;5.134;2022-10-31T10:49:25;20.00;;;13.82;;
60372;SDS011;46216;52.220;5.134;2022-10-31T10:54:36;19.25;;;12.73;;
60372;SDS011;46216;52.220;5.134;2022-10-31T10:59:53;16.15;;;11.23;;
60372;SDS011;46216;52.220;5.134;2022-10-31T11:02:20;17.08;;;11.65;;
60372;SDS011;46216;52.220;5.134;2022-10-31T11:04:52;16.23;;;11.07;;
60372;SDS011;46216;52.220;5.134;2022-10-31T11:07:19;15.13;;;10.65;;
60372;SDS011;46216;52.220;5.134;2022-10-31T11:09:45;16.70;;;10.20;;
60372;SDS011;46216;52.220;5.134;2022-10-31T11:12:21;14.60;;;10.20;;
60372;SDS011;46216;52.220;5.134;2022-10-31T11:14:53;14.57;;;10.40;;
60372;SDS011;46216;52.220;5.134;2022-10-31T11:17:31;17.75;;;10.30;;
60372;SDS011;46216;52.220;5.134;2022-10-31T11:20:00;14.02;;;10.05;;
60372;SDS011;46216;52.220;5.134;2022-10-31T11:22:49;19.08;;;11.45;;
60372;SDS011;46216;52.220;5.134;2022-10-31T11:25:20;17.60;;;11.98;;
60372;SDS011;46216;52.220;5.134;2022-10-31T11:27:46;20.00;;;12.75;;
60372;SDS011;46216;52.220;5.134;2022-10-31T11:30:23;19.27;;;12.82;;
60372;SDS011;46216;52.220;5.134;2022-10-31T11:32:50;19.92;;;13.27;;
60372;SDS011;46216;52.220;5.134;2022-10-31T11:35:17;19.58;;;13.02;;
60372;SDS011;46216;52.220;5.134;2022-10-31T11:37:46;20.95;;;13.55;;
60372;SDS011;46216;52.220;5.134;2022-10-31T11:40:19;20.02;;;14.02;;
60372;SDS011;46216;52.220;5.134;2022-10-31T11:42:47;17.95;;;13.77;;
60372;SDS011;46216;52.220;5.134;2022-10-31T11:45:14;20.40;;;14.90;;
60372;SDS011;46216;52.220;5.134;2022-10-31T11:47:43;23.85;;;14.15;;
60372;SDS011;46216;52.220;5.134;2022-10-31T11:50:18;20.88;;;15.05;;
60372;SDS011;46216;52.220;5.134;2022-10-31T11:52:47;20.45;;;14.50;;
60372;SDS011;46216;52.220;5.134;2022-10-31T11:55:26;20.52;;;14.75;;
60372;SDS011;46216;52.220;5.134;2022-10-31T11:58:02;19.60;;;14.05;;
60372;SDS011;46216;52.220;5.134;2022-10-31T12:00:29;21.52;;;14.55;;
60372;SDS011;46216;52.220;5.134;2022-10-31T12:06:02;19.30;;;15.10;;
60372;SDS011;46216;52.220;5.134;2022-10-31T12:08:37;23.08;;;15.13;;
60372;SDS011;46216;52.220;5.134;2022-10-31T12:11:42;22.00;;;15.40;;
60372;SDS011;46216;52.220;5.134;2022-10-31T12:13:59;27.63;;;16.58;;
60372;SDS011;46216;52.220;5.134;2022-10-31T12:19:06;25.92;;;16.60;;
60372;SDS011;46216;52.220;5.134;2022-10-31T12:21:59;23.25;;;16.42;;
60372;SDS011;46216;52.220;5.134;2022-10-31T12:24:35;24.38;;;17.48;;
60372;SDS011;46216;52.220;5.134;2022-10-31T12:30:02;30.15;;;18.05;;
60372;SDS011;46216;52.220;5.134;2022-10-31T12:32:59;27.10;;;17.88;;
60372;SDS011;46216;52.220;5.134;2022-10-31T12:35:44;28.05;;;18.58;;
60372;SDS011;46216;52.220;5.134;2022-10-31T12:43:52;30.25;;;19.67;;
60372;SDS011;46216;52.220;5.134;2022-10-31T12:46:27;30.25;;;20.27;;
60372;SDS011;46216;52.220;5.134;2022-10-31T12:51:48;36.15;;;21.15;;
60372;SDS011;46216;52.220;5.134;2022-10-31T12:54:37;35.15;;;21.45;;
60372;SDS011;46216;52.220;5.134;2022-10-31T12:57:09;34.95;;;21.90;;
60372;SDS011;46216;52.220;5.134;2022-10-31T12:59:52;37.05;;;21.60;;
60372;SDS011;46216;52.220;5.134;2022-10-31T13:02:26;35.60;;;22.08;;
60372;SDS011;46216;52.220;5.134;2022-10-31T13:04:58;35.05;;;22.40;;
60372;SDS011;46216;52.220;5.134;2022-10-31T13:07:39;37.10;;;22.40;;
60372;SDS011;46216;52.220;5.134;2022-10-31T13:12:46;36.08;;;21.65;;
60372;SDS011;46216;52.220;5.134;2022-10-31T13:15:22;41.15;;;22.85;;
60372;SDS011;46216;52.220;5.134;2022-10-31T13:18:25;35.88;;;23.77;;
60372;SDS011;46216;52.220;5.134;2022-10-31T13:20:51;36.67;;;22.75;;
60372;SDS011;46216;52.220;5.134;2022-10-31T13:23:22;38.80;;;23.50;;
60372;SDS011;46216;52.220;5.134;2022-10-31T13:25:54;37.47;;;22.98;;
60372;SDS011;46216;52.220;5.134;2022-10-31T13:28:27;44.22;;;23.90;;
60372;SDS011;46216;52.220;5.134;2022-10-31T13:31:00;37.63;;;23.17;;
60372;SDS011;46216;52.220;5.134;2022-10-31T13:33:27;37.80;;;22.50;;
60372;SDS011;46216;52.220;5.134;2022-10-31T13:38:43;37.28;;;23.13;;
60372;SDS011;46216;52.220;5.134;2022-10-31T13:46:40;38.42;;;22.60;;
60372;SDS011;46216;52.220;5.134;2022-10-31T13:51:50;39.20;;;22.92;;
60372;SDS011;46216;52.220;5.134;2022-10-31T13:54:30;38.47;;;22.73;;
60372;SDS011;46216;52.220;5.134;2022-10-31T13:56:57;36.45;;;22.27;;
60372;SDS011;46216;52.220;5.134;2022-10-31T13:59:23;36.42;;;21.70;;
60372;SDS011;46216;52.220;5.134;2022-10-31T14:01:57;38.22;;;22.00;;
60372;SDS011;46216;52.220;5.134;2022-10-31T14:04:47;32.30;;;21.00;;
60372;SDS011;46216;52.220;5.134;2022-10-31T14:07:18;33.15;;;21.67;;
60372;SDS011;46216;52.220;5.134;2022-10-31T14:12:44;35.08;;;21.05;;
60372;SDS011;46216;52.220;5.134;2022-10-31T14:15:21;35.83;;;20.90;;
60372;SDS011;46216;52.220;5.134;2022-10-31T14:20:24;30.42;;;19.73;;
60372;SDS011;46216;52.220;5.134;2022-10-31T14:22:57;34.65;;;20.63;;
60372;SDS011;46216;52.220;5.134;2022-10-31T14:25:32;35.45;;;20.10;;
60372;SDS011;46216;52.220;5.134;2022-10-31T14:28:01;31.27;;;19.85;;
60372;SDS011;46216;52.220;5.134;2022-10-31T14:30:29;32.70;;;20.85;;
60372;SDS011;46216;52.220;5.134;2022-10-31T14:32:57;33.80;;;21.75;;
60372;SDS011;46216;52.220;5.134;2022-10-31T14:35:27;33.53;;;21.63;;
60372;SDS011;46216;52.220;5.134;2022-10-31T14:47:07;38.38;;;22.00;;
60372;SDS011;46216;52.220;5.134;2022-10-31T14:52:23;37.33;;;21.50;;
60372;SDS011;46216;52.220;5.134;2022-10-31T14:54:50;38.65;;;21.88;;
60372;SDS011;46216;52.220;5.134;2022-10-31T14:57:23;31.35;;;20.33;;
60372;SDS011;46216;52.220;5.134;2022-10-31T14:59:55;35.92;;;20.23;;
60372;SDS011;46216;52.220;5.134;2022-10-31T15:02:26;35.35;;;21.42;;
60372;SDS011;46216;52.220;5.134;2022-10-31T15:05:13;35.92;;;20.25;;
60372;SDS011;46216;52.220;5.134;2022-10-31T15:07:48;34.80;;;21.10;;
60372;SDS011;46216;52.220;5.134;2022-10-31T15:12:46;37.13;;;20.63;;
60372;SDS011;46216;52.220;5.134;2022-10-31T15:15:12;36.28;;;20.55;;
60372;SDS011;46216;52.220;5.134;2022-10-31T15:17:43;33.60;;;20.65;;
60372;SDS011;46216;52.220;5.134;2022-10-31T15:20:11;33.72;;;20.23;;
60372;SDS011;46216;52.220;5.134;2022-10-31T15:22:41;35.20;;;20.48;;
60372;SDS011;46216;52.220;5.134;2022-10-31T15:25:12;34.00;;;19.92;;
60372;SDS011;46216;52.220;5.134;2022-10-31T15:27:42;33.30;;;19.42;;
60372;SDS011;46216;52.220;5.134;2022-10-31T15:30:22;36.40;;;21.48;;
60372;SDS011;46216;52.220;5.134;2022-10-31T15:32:52;33.40;;;19.67;;
60372;SDS011;46216;52.220;5.134;2022-10-31T15:35:30;37.28;;;20.73;;
60372;SDS011;46216;52.220;5.134;2022-10-31T15:37:56;37.03;;;20.05;;
60372;SDS011;46216;52.220;5.134;2022-10-31T15:40:23;34.15;;;20.77;;
60372;SDS011;46216;52.220;5.134;2022-10-31T15:42:51;33.97;;;20.52;;
60372;SDS011;46216;52.220;5.134;2022-10-31T15:45:21;33.97;;;20.98;;
60372;SDS011;46216;52.220;5.134;2022-10-31T15:47:53;33.78;;;19.88;;
60372;SDS011;46216;52.220;5.134;2022-10-31T15:50:20;33.05;;;20.05;;
60372;SDS011;46216;52.220;5.134;2022-10-31T15:52:57;37.10;;;20.98;;
60372;SDS011;46216;52.220;5.134;2022-10-31T15:55:25;36.42;;;21.05;;
60372;SDS011;46216;52.220;5.134;2022-10-31T15:57:55;35.42;;;20.98;;
60372;SDS011;46216;52.220;5.134;2022-10-31T16:03:08;38.35;;;21.55;;
60372;SDS011;46216;52.220;5.134;2022-10-31T16:05:48;33.38;;;20.95;;
60372;SDS011;46216;52.220;5.134;2022-10-31T16:11:17;37.88;;;22.30;;
60372;SDS011;46216;52.220;5.134;2022-10-31T16:16:44;38.97;;;22.27;;
60372;SDS011;46216;52.220;5.134;2022-10-31T16:19:18;36.85;;;21.35;;
60372;SDS011;46216;52.220;5.134;2022-10-31T16:21:46;36.65;;;22.63;;
60372;SDS011;46216;52.220;5.134;2022-10-31T16:27:16;37.72;;;21.23;;
60372;SDS011;46216;52.220;5.134;2022-10-31T16:29:44;32.75;;;21.30;;
60372;SDS011;46216;52.220;5.134;2022-10-31T16:32:23;36.55;;;21.38;;
60372;SDS011;46216;52.220;5.134;2022-10-31T16:37:32;35.28;;;22.48;;
60372;SDS011;46216;52.220;5.134;2022-10-31T16:39:58;36.80;;;21.35;;
60372;SDS011;46216;52.220;5.134;2022-10-31T16:42:23;36.28;;;21.60;;